createdAt,value
2022-09-02T00:01:40.034Z,57.71
2022-09-02T00:04:27.077Z,57.61
2022-09-02T00:10:00.540Z,57.45
2022-09-02T00:12:46.558Z,57.73
2022-09-02T00:15:34.247Z,57.48
2022-09-02T00:18:20.405Z,57.69
2022-09-02T00:21:08.396Z,57.61
2022-09-02T00:23:54.534Z,57.78
2022-09-02T00:26:40.393Z,57.66
2022-09-02T00:29:27.548Z,57.74
2022-09-02T00:32:13.623Z,57.84
2022-09-02T00:35:00.158Z,58.06
2022-09-02T00:37:46.259Z,57.78
2022-09-02T00:40:33.238Z,57.93
2022-09-02T00:43:46.948Z,58.03
2022-09-02T00:46:33.721Z,57.75
2022-09-02T00:49:27.006Z,58.32
2022-09-02T00:52:27.498Z,58.12
2022-09-02T00:55:19.849Z,58.29
2022-09-02T00:58:10.068Z,58.21
2022-09-02T01:00:58.067Z,58.20
2022-09-02T01:03:44.683Z,58.21
2022-09-02T01:06:33.192Z,58.63
2022-09-02T01:09:19.501Z,58.33
2022-09-02T01:12:07.128Z,58.42
2022-09-02T01:14:53.735Z,58.31
2022-09-02T01:17:46.376Z,58.50
2022-09-02T01:20:32.993Z,58.47
2022-09-02T01:23:19.261Z,58.58
2022-09-02T01:26:07.931Z,58.46
2022-09-02T01:28:53.982Z,58.36
2022-09-02T01:31:40.240Z,58.25
2022-09-02T01:34:26.160Z,58.35
2022-09-02T01:37:12.543Z,58.34
2022-09-02T01:39:59.767Z,58.58
2022-09-02T01:42:46.902Z,58.61
2022-09-02T01:45:33.952Z,58.60
2022-09-02T01:48:21.659Z,58.45
2022-09-02T01:51:08.566Z,58.59
2022-09-02T01:53:54.750Z,58.56
2022-09-02T01:56:40.680Z,58.78
2022-09-02T01:59:26.652Z,58.68
2022-09-02T02:02:13.772Z,58.94
2022-09-02T02:05:01.002Z,58.72
2022-09-02T02:07:46.982Z,58.67
2022-09-02T02:10:33.486Z,58.66
2022-09-02T02:13:19.896Z,58.57
2022-09-02T02:16:06.421Z,58.68
2022-09-02T02:18:52.661Z,58.63
2022-09-02T02:21:39.505Z,58.67
2022-09-02T02:24:25.867Z,58.54
2022-09-02T02:27:12.045Z,58.31
2022-09-02T02:29:58.495Z,58.49
2022-09-02T02:32:47.090Z,58.47
2022-09-02T02:35:35.550Z,58.58
2022-09-02T02:38:21.865Z,58.51
2022-09-02T02:41:09.745Z,58.88
2022-09-02T02:43:56.197Z,58.65
2022-09-02T02:46:43.698Z,58.56
2022-09-02T02:49:30.428Z,58.79
2022-09-02T02:52:16.830Z,58.86
2022-09-02T02:55:02.984Z,59.03
2022-09-02T02:57:49.811Z,58.94
2022-09-02T03:00:37.063Z,58.97
2022-09-02T03:03:23.529Z,58.93
2022-09-02T03:06:12.717Z,59.05
2022-09-02T03:08:59.812Z,58.87
2022-09-02T03:11:47.510Z,58.93
2022-09-02T03:14:34.049Z,58.92
2022-09-02T03:17:20.034Z,58.93
2022-09-02T03:20:08.019Z,58.92
2022-09-02T03:22:59.209Z,58.88
2022-09-02T03:25:46.220Z,59.00
2022-09-02T03:28:43.858Z,59.05
2022-09-02T03:31:30.164Z,59.21
2022-09-02T03:34:17.887Z,59.01
2022-09-02T03:37:03.805Z,59.18
2022-09-02T03:39:49.997Z,59.32
2022-09-02T03:42:35.757Z,59.22
2022-09-02T03:45:21.866Z,59.17
2022-09-02T03:48:09.356Z,59.24
2022-09-02T03:50:56.865Z,59.19
2022-09-02T03:53:42.787Z,59.02
2022-09-02T03:56:28.830Z,59.06
2022-09-02T03:59:16.333Z,59.06
2022-09-02T04:02:03.330Z,59.39
2022-09-02T04:04:50.039Z,59.09
2022-09-02T04:07:36.119Z,59.22
2022-09-02T04:10:22.409Z,59.21
2022-09-02T04:13:09.101Z,59.09
2022-09-02T04:15:58.526Z,59.26
2022-09-02T04:18:47.630Z,59.13
2022-09-02T04:21:36.214Z,59.21
2022-09-02T04:24:22.639Z,59.17
2022-09-02T04:27:09.610Z,59.25
2022-09-02T04:29:56.352Z,59.27
2022-09-02T04:32:43.732Z,59.29
2022-09-02T04:35:29.686Z,59.25
2022-09-02T04:38:16.900Z,59.21
2022-09-02T04:41:18.224Z,59.49
2022-09-02T04:44:05.147Z,59.34
2022-09-02T04:46:55.869Z,59.15
2022-09-02T04:49:43.197Z,59.45
2022-09-02T04:52:30.785Z,59.25
2022-09-02T04:55:16.809Z,58.96
2022-09-02T04:58:03.533Z,59.07
2022-09-02T05:00:52.010Z,59.06
2022-09-02T05:03:38.060Z,59.23
2022-09-02T05:06:27.493Z,59.39
2022-09-02T05:09:16.904Z,59.34
2022-09-02T05:12:06.008Z,59.34
2022-09-02T05:15:02.474Z,59.21
2022-09-02T05:17:50.817Z,59.23
2022-09-02T05:20:39.705Z,59.35
2022-09-02T05:23:26.202Z,59.10
2022-09-02T05:26:13.211Z,59.18
2022-09-02T05:29:00.972Z,59.11
2022-09-02T05:31:48.918Z,59.13
2022-09-02T05:34:36.192Z,59.07
2022-09-02T05:37:24.636Z,59.03
2022-09-02T05:40:14.897Z,59.39
2022-09-02T05:43:02.297Z,59.05
2022-09-02T05:45:49.125Z,59.20
2022-09-02T05:48:55.912Z,59.20
2022-09-02T05:51:48.399Z,59.27
2022-09-02T05:54:38.801Z,59.15
2022-09-02T05:57:27.706Z,59.12
2022-09-02T06:00:18.385Z,59.34
2022-09-02T06:03:19.410Z,59.29
2022-09-02T06:06:08.405Z,59.29
2022-09-02T06:08:57.196Z,59.23
2022-09-02T06:11:45.488Z,59.21
2022-09-02T06:14:35.024Z,59.20
2022-09-02T06:17:20.954Z,59.05
2022-09-02T06:20:11.857Z,59.24
2022-09-02T06:23:00.667Z,59.23
2022-09-02T06:25:48.645Z,59.30
2022-09-02T06:28:35.501Z,59.41
2022-09-02T06:31:23.170Z,59.32
2022-09-02T06:34:12.497Z,59.30
2022-09-02T06:37:00.082Z,59.37
2022-09-02T06:39:46.796Z,59.32
2022-09-02T06:42:38.589Z,59.42
2022-09-02T06:45:40.456Z,59.33
2022-09-02T06:48:32.856Z,59.27
2022-09-02T06:51:26.366Z,59.25
2022-09-02T06:54:17.497Z,59.64
2022-09-02T06:57:05.406Z,59.74
2022-09-02T06:59:52.800Z,59.84
2022-09-02T07:03:06.252Z,59.98
2022-09-02T07:06:11.584Z,60.10
2022-09-02T07:09:03.200Z,60.11
2022-09-02T07:11:50.588Z,60.35
2022-09-02T07:14:42.857Z,60.32
2022-09-02T07:17:30.806Z,60.23
2022-09-02T07:20:26.250Z,60.35
2022-09-02T07:23:18.612Z,60.35
2022-09-02T07:26:05.202Z,60.41
2022-09-02T07:28:52.797Z,60.38
2022-09-02T07:31:42.540Z,60.21
2022-09-02T07:34:30.396Z,60.24
2022-09-02T07:37:18.081Z,60.02
2022-09-02T07:40:06.630Z,60.07
2022-09-02T07:42:53.308Z,59.96
2022-09-02T07:45:43.372Z,59.67
2022-09-02T07:48:30.744Z,59.94
2022-09-02T07:51:19.002Z,59.67
2022-09-02T07:54:06.559Z,59.49
2022-09-02T07:56:53.265Z,59.42
2022-09-02T07:59:43.561Z,59.93
2022-09-02T08:02:43.077Z,59.46
2022-09-02T08:05:34.357Z,59.47
2022-09-02T08:08:21.188Z,59.41
2022-09-02T08:11:17.837Z,59.04
2022-09-02T08:14:03.858Z,59.05
2022-09-02T08:16:50.181Z,59.20
2022-09-02T08:19:36.423Z,59.02
2022-09-02T08:22:22.371Z,59.28
2022-09-02T08:25:09.048Z,59.28
2022-09-02T08:30:47.073Z,58.86
2022-09-02T08:33:33.307Z,59.18
2022-09-02T08:36:21.122Z,59.18
2022-09-02T08:39:07.225Z,59.06
2022-09-02T08:42:11.738Z,59.02
2022-09-02T08:45:07.581Z,58.92
2022-09-02T08:48:16.244Z,58.68
2022-09-02T08:51:13.528Z,58.72
2022-09-02T08:54:27.866Z,58.79
2022-09-02T08:57:13.913Z,58.51
2022-09-02T09:00:02.066Z,58.55
2022-09-02T09:02:56.848Z,58.79
2022-09-02T09:05:57.990Z,58.83
2022-09-02T09:09:26.261Z,59.02
2022-09-02T09:12:42.522Z,59.38
2022-09-02T09:15:49.799Z,59.51
2022-09-02T09:18:43.525Z,59.25
2022-09-02T09:21:31.951Z,58.84
2022-09-02T09:24:36.869Z,58.96
2022-09-02T09:27:23.492Z,59.19
2022-09-02T09:30:15.101Z,59.07
2022-09-02T09:33:02.777Z,59.10
2022-09-02T09:35:54.585Z,59.24
2022-09-02T09:38:40.657Z,58.93
2022-09-02T09:41:29.037Z,59.18
2022-09-02T09:44:41.082Z,59.20
2022-09-02T09:47:27.633Z,59.37
2022-09-02T09:50:16.894Z,59.10
2022-09-02T09:53:23.019Z,59.17
2022-09-02T09:56:15.732Z,59.36
2022-09-02T09:59:01.948Z,59.22
2022-09-02T10:01:52.070Z,59.20
2022-09-02T10:04:45.399Z,59.12
2022-09-02T10:07:59.240Z,59.43
2022-09-02T10:10:55.713Z,59.28
2022-09-02T10:13:42.883Z,59.37
2022-09-02T10:17:15.070Z,59.59
2022-09-02T10:20:23.019Z,59.66
2022-09-02T10:23:09.214Z,59.46
2022-09-02T10:26:05.313Z,60.25
2022-09-02T10:29:38.365Z,60.03
2022-09-02T10:32:46.616Z,60.14
2022-09-02T10:35:43.517Z,60.31
2022-09-02T10:38:32.489Z,59.96
2022-09-02T10:41:37.337Z,60.04
2022-09-02T10:44:47.046Z,59.97
2022-09-02T10:47:38.514Z,59.78
2022-09-02T10:50:33.602Z,60.01
2022-09-02T10:53:46.959Z,59.95
2022-09-02T10:57:00.186Z,60.19
2022-09-02T11:00:00.034Z,60.13
2022-09-02T11:02:51.725Z,59.52
2022-09-02T11:05:48.193Z,59.70
2022-09-02T11:08:40.252Z,59.81
2022-09-02T11:11:38.603Z,60.36
2022-09-02T11:14:28.013Z,59.75
2022-09-02T11:17:31.427Z,59.89
2022-09-02T11:20:30.785Z,59.89
2022-09-02T11:23:42.047Z,59.91
2022-09-02T11:26:41.544Z,60.01
2022-09-02T11:29:55.089Z,60.07
2022-09-02T11:32:56.942Z,60.05
2022-09-02T11:35:44.387Z,59.80
2022-09-02T11:38:54.871Z,60.01
2022-09-02T11:41:43.984Z,60.17
2022-09-02T11:44:52.739Z,59.90
2022-09-02T11:48:05.279Z,60.22
2022-09-02T11:54:07.235Z,60.15
2022-09-02T11:56:58.661Z,59.90
2022-09-02T11:59:53.457Z,60.38
2022-09-02T12:02:45.988Z,60.55
2022-09-02T12:05:35.302Z,60.18
2022-09-02T12:08:35.784Z,60.30
2022-09-02T12:11:42.857Z,60.44
2022-09-02T12:14:29.120Z,60.11
2022-09-02T12:18:05.647Z,61.04
2022-09-02T12:20:57.802Z,60.26
2022-09-02T12:23:53.864Z,60.43
2022-09-02T12:26:39.745Z,60.11
2022-09-02T12:29:31.397Z,60.01
2022-09-02T12:32:51.963Z,60.22
2022-09-02T12:35:59.128Z,60.21
2022-09-02T12:38:45.341Z,59.83
2022-09-02T12:41:31.794Z,60.12
2022-09-02T12:44:28.624Z,60.29
2022-09-02T12:47:45.424Z,59.84
2022-09-02T12:50:50.909Z,59.74
2022-09-02T12:53:44.031Z,59.93
2022-09-02T12:56:29.981Z,59.90
2022-09-02T12:59:37.435Z,59.93
